createdAt,value
2017-09-22T00:01:58.504Z,101611.56
2017-09-22T00:04:26.158Z,101602.03
2017-09-22T00:06:53.798Z,101608.30
2017-09-22T00:09:21.520Z,101603.02
2017-09-22T00:11:49.101Z,101607.73
2017-09-22T00:14:16.711Z,101606.69
2017-09-22T00:16:44.330Z,101608.95
2017-09-22T00:19:11.909Z,101603.50
2017-09-22T00:21:39.520Z,101606.06
2017-09-22T00:24:07.095Z,101609.97
2017-09-22T00:26:34.712Z,101609.23
2017-09-22T00:29:02.298Z,101612.00
2017-09-22T00:31:29.876Z,101604.42
2017-09-22T00:33:57.483Z,101595.73
2017-09-22T00:36:25.359Z,101597.46
2017-09-22T00:38:52.990Z,101598.48
2017-09-22T00:41:20.576Z,101592.03
2017-09-22T00:43:48.168Z,101597.58
2017-09-22T00:46:15.785Z,101594.89
2017-09-22T00:48:43.668Z,101603.58
2017-09-22T00:51:11.280Z,101601.99
2017-09-22T00:53:39.206Z,101603.93
2017-09-22T00:56:06.818Z,101607.45
2017-09-22T00:58:34.432Z,101602.94
2017-09-22T01:01:02.039Z,101609.27
2017-09-22T01:03:29.663Z,101611.89
2017-09-22T01:05:57.239Z,101610.30
2017-09-22T01:08:24.814Z,101614.62
2017-09-22T01:10:52.425Z,101616.23
2017-09-22T01:13:20.002Z,101618.44
2017-09-22T01:15:47.614Z,101620.91
2017-09-22T01:18:15.207Z,101619.78
2017-09-22T01:20:43.084Z,101610.30
2017-09-22T01:23:10.687Z,101614.83
2017-09-22T01:25:38.375Z,101615.91
2017-09-22T01:28:06.000Z,101613.47
2017-09-22T01:30:33.579Z,101612.24
2017-09-22T01:33:01.197Z,101612.48
2017-09-22T01:35:28.838Z,101602.30
2017-09-22T01:37:56.424Z,101598.19
2017-09-22T01:40:24.057Z,101607.38
2017-09-22T01:42:51.635Z,101605.95
2017-09-22T01:45:19.213Z,101613.05
2017-09-22T01:47:46.819Z,101611.83
2017-09-22T01:50:14.397Z,101605.44
2017-09-22T01:52:42.012Z,101596.05
2017-09-22T01:55:09.601Z,101605.59
2017-09-22T01:57:37.190Z,101605.42
2017-09-22T02:00:05.084Z,101595.59
2017-09-22T02:02:32.664Z,101602.36
2017-09-22T02:05:00.286Z,101598.56
2017-09-22T02:07:27.871Z,101602.02
2017-09-22T02:09:55.460Z,101605.45
2017-09-22T02:12:23.107Z,101604.44
2017-09-22T02:14:50.688Z,101604.70
2017-09-22T02:17:18.302Z,101598.52
2017-09-22T02:19:46.180Z,101595.09
2017-09-22T02:22:13.752Z,101593.84
2017-09-22T02:24:41.369Z,101593.02
2017-09-22T02:27:08.953Z,101593.28
2017-09-22T02:29:36.568Z,101594.88
2017-09-22T02:32:04.147Z,101582.17
2017-09-22T02:34:32.059Z,101585.03
2017-09-22T02:36:59.670Z,101584.11
2017-09-22T02:39:27.248Z,101577.39
2017-09-22T02:41:54.870Z,101577.90
2017-09-22T02:44:22.472Z,101573.45
2017-09-22T02:46:50.055Z,101571.09
2017-09-22T02:49:17.899Z,101577.63
2017-09-22T02:51:45.506Z,101575.28
2017-09-22T02:54:13.129Z,101580.73
2017-09-22T02:56:40.734Z,101581.75
2017-09-22T02:59:08.309Z,101577.30
2017-09-22T03:01:35.916Z,101581.25
2017-09-22T03:04:03.528Z,101580.32
2017-09-22T03:06:31.141Z,101586.28
2017-09-22T03:08:58.717Z,101581.42
2017-09-22T03:11:26.293Z,101578.32
2017-09-22T03:13:53.905Z,101579.48
2017-09-22T03:16:21.491Z,101577.54
2017-09-22T03:18:49.108Z,101576.73
2017-09-22T03:21:16.694Z,101577.05
2017-09-22T03:23:44.330Z,101573.71
2017-09-22T03:26:11.956Z,101578.36
2017-09-22T03:28:39.532Z,101582.27
2017-09-22T03:31:07.162Z,101584.45
2017-09-22T03:33:34.748Z,101588.90
2017-09-22T03:36:02.324Z,101584.03
2017-09-22T03:38:29.935Z,101578.75
2017-09-22T03:40:57.527Z,101577.32
2017-09-22T03:43:25.174Z,101582.84
2017-09-22T03:45:53.056Z,101584.62
2017-09-22T03:48:20.871Z,101579.18
2017-09-22T03:50:48.523Z,101571.72
2017-09-22T03:53:16.122Z,101575.30
2017-09-22T03:55:43.749Z,101569.77
2017-09-22T03:58:11.346Z,101564.33
2017-09-22T04:00:38.938Z,101558.53
2017-09-22T04:03:06.562Z,101560.34
2017-09-22T04:05:34.139Z,101557.17
2017-09-22T04:08:01.755Z,101561.70
2017-09-22T04:10:29.346Z,101556.88
2017-09-22T04:12:56.935Z,101561.31
2017-09-22T04:15:24.559Z,101560.94
2017-09-22T04:17:52.139Z,101556.16
2017-09-22T04:20:19.769Z,101554.06
2017-09-22T04:22:47.346Z,101554.95
2017-09-22T04:25:14.927Z,101567.20
2017-09-22T04:27:42.587Z,101579.78
2017-09-22T04:30:11.096Z,101571.23
2017-09-22T04:32:38.764Z,101566.37
2017-09-22T04:35:06.346Z,101570.06
2017-09-22T04:37:33.928Z,101565.53
2017-09-22T04:40:01.541Z,101566.78
2017-09-22T04:42:29.133Z,101572.33
2017-09-22T04:44:56.711Z,101576.31
2017-09-22T04:47:24.404Z,101575.81
2017-09-22T04:49:52.012Z,101577.39
2017-09-22T04:52:19.618Z,101574.42
2017-09-22T04:54:47.226Z,101576.69
2017-09-22T04:57:15.090Z,101578.27
2017-09-22T04:59:42.705Z,101578.60
2017-09-22T05:02:10.288Z,101571.14
2017-09-22T05:04:37.871Z,101573.32
2017-09-22T05:07:05.469Z,101581.97
2017-09-22T05:09:33.402Z,101586.78
2017-09-22T05:12:01.023Z,101589.97
2017-09-22T05:14:28.611Z,101590.19
2017-09-22T05:16:56.199Z,101591.36
2017-09-22T05:19:23.842Z,101587.33
2017-09-22T05:21:51.439Z,101588.75
2017-09-22T05:24:19.050Z,101591.47
2017-09-22T05:26:46.630Z,101591.30
2017-09-22T05:29:14.217Z,101582.27
2017-09-22T05:31:41.824Z,101592.91
2017-09-22T05:34:09.404Z,101587.86
2017-09-22T05:36:37.020Z,101590.88
2017-09-22T05:39:04.644Z,101590.16
2017-09-22T05:41:32.238Z,101597.54
2017-09-22T05:43:59.858Z,101591.25
2017-09-22T05:46:27.458Z,101590.98
2017-09-22T05:48:55.074Z,101590.59
2017-09-22T05:51:22.657Z,101590.42
2017-09-22T05:53:50.243Z,101591.59
2017-09-22T05:56:17.857Z,101592.02
2017-09-22T05:58:45.457Z,101593.59
2017-09-22T06:01:13.087Z,101597.36
2017-09-22T06:03:40.760Z,101603.22
2017-09-22T06:06:08.344Z,101600.81
2017-09-22T06:08:35.970Z,101607.70
2017-09-22T06:11:03.546Z,101606.45
2017-09-22T06:13:31.173Z,101601.71
2017-09-22T06:15:58.761Z,101609.77
2017-09-22T06:18:26.335Z,101616.90
2017-09-22T06:20:56.514Z,101622.03
2017-09-22T06:23:26.251Z,101617.59
2017-09-22T06:25:53.930Z,101616.59
2017-09-22T06:28:23.604Z,101619.64
2017-09-22T06:30:51.712Z,101621.38
2017-09-22T06:33:19.378Z,101619.32
2017-09-22T06:35:46.962Z,101620.13
2017-09-22T06:38:14.595Z,101617.95
2017-09-22T06:40:42.187Z,101628.31
2017-09-22T06:43:09.774Z,101625.86
2017-09-22T06:45:37.927Z,101631.38
2017-09-22T06:48:11.133Z,101632.21
2017-09-22T06:50:40.308Z,101634.97
2017-09-22T06:53:07.896Z,101639.02
2017-09-22T06:55:37.044Z,101639.03
2017-09-22T06:58:05.068Z,101644.46
2017-09-22T07:00:33.926Z,101643.64
2017-09-22T07:03:01.876Z,101648.77
2017-09-22T07:05:29.515Z,101650.71
2017-09-22T07:07:57.403Z,101644.48
2017-09-22T07:10:24.984Z,101646.06
2017-09-22T07:12:52.941Z,101651.27
2017-09-22T07:15:20.522Z,101644.83
2017-09-22T07:17:48.467Z,101652.27
2017-09-22T07:20:16.048Z,101648.44
2017-09-22T07:22:43.636Z,101650.11
2017-09-22T07:25:11.260Z,101647.25
2017-09-22T07:27:38.841Z,101648.14
2017-09-22T07:30:06.459Z,101651.16
2017-09-22T07:32:34.032Z,101649.38
2017-09-22T07:35:01.616Z,101651.05
2017-09-22T07:37:29.216Z,101648.67
2017-09-22T07:39:56.804Z,101643.95
2017-09-22T07:42:24.429Z,101648.02
2017-09-22T07:44:52.014Z,101653.55
2017-09-22T07:47:19.586Z,101653.94
2017-09-22T07:49:47.188Z,101657.56
2017-09-22T07:52:14.772Z,101653.63
2017-09-22T07:54:42.395Z,101651.13
2017-09-22T07:57:09.977Z,101645.72
2017-09-22T07:59:37.551Z,101644.30
2017-09-22T08:02:05.162Z,101640.84
2017-09-22T08:04:32.730Z,101647.91
2017-09-22T08:07:00.366Z,101638.06
2017-09-22T08:09:27.953Z,101634.42
2017-09-22T08:11:55.543Z,101637.84
2017-09-22T08:14:23.143Z,101635.19
2017-09-22T08:16:50.861Z,101633.69
2017-09-22T08:19:18.483Z,101634.81
2017-09-22T08:21:46.278Z,101630.93
2017-09-22T08:24:14.011Z,101638.60
2017-09-22T08:26:41.614Z,101637.54
2017-09-22T08:29:09.199Z,101646.30
2017-09-22T08:31:36.812Z,101644.81
2017-09-22T08:34:04.424Z,101641.61
2017-09-22T08:36:32.000Z,101639.50
2017-09-22T08:38:59.615Z,101637.80
2017-09-22T08:41:27.183Z,101634.36
2017-09-22T08:44:11.235Z,101633.02
2017-09-22T08:46:41.074Z,101633.41
2017-09-22T08:49:08.787Z,101637.09
2017-09-22T08:51:36.663Z,101625.39
2017-09-22T08:54:04.244Z,101631.02
2017-09-22T08:56:31.870Z,101634.16
2017-09-22T08:59:00.525Z,101632.48
2017-09-22T09:01:29.032Z,101634.13
2017-09-22T09:03:56.607Z,101640.29
2017-09-22T09:06:24.803Z,101634.90
2017-09-22T09:08:54.856Z,101632.08
2017-09-22T09:11:22.449Z,101632.50
2017-09-22T09:13:51.001Z,101632.24
2017-09-22T09:16:18.718Z,101626.52
2017-09-22T09:18:47.005Z,101621.62
2017-09-22T09:21:14.973Z,101623.50
2017-09-22T09:23:42.565Z,101615.25
2017-09-22T09:26:10.182Z,101619.28
2017-09-22T09:28:37.754Z,101624.38
2017-09-22T09:31:05.319Z,101622.48
2017-09-22T09:33:32.933Z,101629.56
2017-09-22T09:36:00.517Z,101629.16
2017-09-22T09:38:28.140Z,101628.03
2017-09-22T09:40:56.068Z,101628.33
2017-09-22T09:43:23.648Z,101624.11
2017-09-22T09:45:51.248Z,101621.64
2017-09-22T09:48:18.823Z,101621.41
2017-09-22T09:50:46.438Z,101620.28
2017-09-22T09:53:14.008Z,101617.72
2017-09-22T09:55:41.723Z,101615.14
2017-09-22T09:58:09.375Z,101611.92
2017-09-22T10:00:36.947Z,101620.66
2017-09-22T10:03:04.560Z,101611.69
2017-09-22T10:05:32.131Z,101611.06
2017-09-22T10:07:59.994Z,101613.08
2017-09-22T10:10:27.588Z,101616.48
2017-09-22T10:12:55.488Z,101607.95
2017-09-22T10:15:23.454Z,101607.03
2017-09-22T10:17:51.032Z,101602.06
2017-09-22T10:20:18.631Z,101604.31
2017-09-22T10:22:46.245Z,101598.08
2017-09-22T10:25:13.831Z,101602.17
2017-09-22T10:27:41.447Z,101607.80
2017-09-22T10:30:09.027Z,101597.63
2017-09-22T10:32:36.631Z,101599.61
2017-09-22T10:35:04.227Z,101607.95
2017-09-22T10:37:31.856Z,101599.98
2017-09-22T10:39:59.477Z,101598.01
2017-09-22T10:42:27.061Z,101598.80
2017-09-22T10:44:54.631Z,101602.53
2017-09-22T10:47:22.382Z,101600.68
2017-09-22T10:49:49.992Z,101610.31
2017-09-22T10:52:17.641Z,101605.56
2017-09-22T10:54:45.222Z,101602.63
2017-09-22T10:57:12.828Z,101606.06
2017-09-22T10:59:40.444Z,101607.77
2017-09-22T11:02:08.037Z,101604.63
2017-09-22T11:04:35.648Z,101598.90
2017-09-22T11:07:03.564Z,101598.46
2017-09-22T11:09:31.150Z,101597.03
2017-09-22T11:11:58.763Z,101589.17
2017-09-22T11:14:26.337Z,101597.67
2017-09-22T11:16:54.315Z,101599.63
2017-09-22T11:19:22.123Z,101601.91
2017-09-22T11:21:49.733Z,101598.17
2017-09-22T11:24:17.636Z,101600.23
2017-09-22T11:26:51.479Z,101596.33
2017-09-22T11:29:27.240Z,101591.07
2017-09-22T11:31:54.292Z,101599.44
2017-09-22T11:34:22.048Z,101600.70
2017-09-22T11:36:50.165Z,101594.34
2017-09-22T11:39:18.251Z,101590.73
2017-09-22T11:41:48.093Z,101590.16
2017-09-22T11:44:15.840Z,101592.28
2017-09-22T11:46:46.142Z,101594.75
2017-09-22T11:49:16.254Z,101593.67
2017-09-22T11:51:45.540Z,101585.27
2017-09-22T11:54:13.417Z,101595.87
2017-09-22T11:56:41.370Z,101592.48
2017-09-22T11:59:09.832Z,101595.69
2017-09-22T12:01:37.492Z,101593.31
2017-09-22T12:04:05.163Z,101591.17
2017-09-22T12:06:32.783Z,101581.58
2017-09-22T12:09:00.355Z,101581.36
2017-09-22T12:11:29.794Z,101590.67
2017-09-22T12:13:58.067Z,101581.33
2017-09-22T12:16:25.997Z,101582.98
2017-09-22T12:18:53.643Z,101594.43
2017-09-22T12:21:21.266Z,101592.34
2017-09-22T12:23:49.376Z,101590.88
2017-09-22T12:26:16.996Z,101592.85
2017-09-22T12:28:44.575Z,101588.20
2017-09-22T12:31:12.192Z,101591.60
2017-09-22T12:33:39.776Z,101589.69
2017-09-22T12:36:07.692Z,101586.01
2017-09-22T12:38:35.308Z,101588.23
2017-09-22T12:41:02.922Z,101580.38
2017-09-22T12:43:30.783Z,101585.74
2017-09-22T12:45:58.581Z,101588.20
2017-09-22T12:48:26.160Z,101595.87
2017-09-22T12:50:53.764Z,101598.36
2017-09-22T12:53:21.645Z,101603.66
2017-09-22T12:55:49.265Z,101591.00
2017-09-22T12:58:16.848Z,101588.24
2017-09-22T13:00:44.444Z,101590.99
2017-09-22T13:03:12.056Z,101590.26
2017-09-22T13:05:39.640Z,101593.55
2017-09-22T13:08:07.259Z,101590.72
2017-09-22T13:10:34.849Z,101593.67
2017-09-22T13:13:02.437Z,101597.22
2017-09-22T13:15:30.087Z,101599.05
2017-09-22T13:17:57.668Z,101602.71
2017-09-22T13:20:25.627Z,101607.29
2017-09-22T13:22:53.204Z,101611.14
2017-09-22T13:25:20.802Z,101608.33
2017-09-22T13:27:48.422Z,101611.94
2017-09-22T13:30:15.998Z,101607.33
2017-09-22T13:32:43.652Z,101613.58
2017-09-22T13:35:11.259Z,101613.16
2017-09-22T13:37:38.848Z,101609.52
2017-09-22T13:40:06.457Z,101605.47
2017-09-22T13:42:34.040Z,101603.73
2017-09-22T13:45:01.952Z,101606.64
2017-09-22T13:47:29.527Z,101607.02
2017-09-22T13:49:57.255Z,101608.38
2017-09-22T13:52:24.876Z,101606.25
2017-09-22T13:54:52.465Z,101608.48
2017-09-22T13:57:20.087Z,101611.30
2017-09-22T13:59:47.700Z,101615.42
2017-09-22T14:02:15.596Z,101616.69
2017-09-22T14:04:43.213Z,101616.93
2017-09-22T14:07:11.636Z,101608.77
2017-09-22T14:09:39.292Z,101607.55
2017-09-22T14:12:06.877Z,101604.08
2017-09-22T14:14:34.444Z,101598.23
2017-09-22T14:17:02.060Z,101604.76
2017-09-22T14:19:29.651Z,101603.30
2017-09-22T14:21:57.288Z,101602.14
2017-09-22T14:24:24.876Z,101599.85
2017-09-22T14:26:52.444Z,101608.41
2017-09-22T14:29:20.052Z,101606.80
2017-09-22T14:31:47.664Z,101604.61
2017-09-22T14:34:21.383Z,101606.83
2017-09-22T14:36:52.285Z,101610.78
2017-09-22T14:39:20.010Z,101606.23
2017-09-22T14:41:47.584Z,101606.55
2017-09-22T14:44:15.325Z,101607.52
2017-09-22T14:46:42.935Z,101609.42
2017-09-22T14:49:10.517Z,101614.52
2017-09-22T14:51:38.180Z,101606.73
2017-09-22T14:54:05.752Z,101612.45
2017-09-22T14:56:33.331Z,101609.05
2017-09-22T14:59:00.939Z,101607.48
2017-09-22T15:01:28.514Z,101606.13
2017-09-22T15:03:56.123Z,101605.27
2017-09-22T15:06:23.687Z,101598.28
2017-09-22T15:08:51.503Z,101598.98
2017-09-22T15:11:19.098Z,101596.90
2017-09-22T15:13:46.966Z,101598.33
2017-09-22T15:16:14.600Z,101595.86
2017-09-22T15:18:42.788Z,101593.39
2017-09-22T15:21:10.370Z,101594.53
2017-09-22T15:23:38.305Z,101591.95
2017-09-22T15:26:05.901Z,101604.19
2017-09-22T15:28:33.518Z,101601.78
2017-09-22T15:31:01.117Z,101596.19
2017-09-22T15:33:28.693Z,101599.95
2017-09-22T15:35:56.295Z,101597.78
2017-09-22T15:38:23.874Z,101597.48
2017-09-22T15:40:51.740Z,101590.95
2017-09-22T15:43:19.720Z,101591.98
2017-09-22T15:45:47.335Z,101588.41
2017-09-22T15:48:14.899Z,101591.23
2017-09-22T15:50:42.491Z,101590.30
2017-09-22T15:53:10.089Z,101593.63
2017-09-22T15:55:37.668Z,101594.37
2017-09-22T15:58:05.590Z,101597.68
2017-09-22T16:00:33.174Z,101613.36
2017-09-22T16:03:00.767Z,101610.36
2017-09-22T16:05:28.371Z,101615.66
2017-09-22T16:07:56.170Z,101613.06
2017-09-22T16:10:23.808Z,101613.79
2017-09-22T16:12:51.404Z,101617.70
2017-09-22T16:15:19.335Z,101617.20
2017-09-22T16:17:46.939Z,101615.52
2017-09-22T16:20:14.525Z,101613.75
2017-09-22T16:22:42.192Z,101624.20
2017-09-22T16:25:09.773Z,101620.14
2017-09-22T16:27:37.352Z,101623.55
2017-09-22T16:30:04.952Z,101623.20
2017-09-22T16:32:32.527Z,101620.19
2017-09-22T16:35:00.144Z,101619.30
2017-09-22T16:37:27.736Z,101619.19
2017-09-22T16:39:55.325Z,101622.09
2017-09-22T16:42:22.924Z,101623.41
2017-09-22T16:44:50.508Z,101624.66
2017-09-22T16:47:18.153Z,101623.37
2017-09-22T16:49:45.726Z,101624.22
2017-09-22T16:52:13.567Z,101626.27
2017-09-22T16:54:41.429Z,101632.16
2017-09-22T16:57:09.011Z,101632.05
2017-09-22T16:59:37.021Z,101633.37
2017-09-22T17:02:04.604Z,101641.88
2017-09-22T17:04:32.182Z,101644.64
2017-09-22T17:06:59.806Z,101654.55
2017-09-22T17:09:27.389Z,101653.69
2017-09-22T17:11:55.004Z,101656.57
2017-09-22T17:14:22.614Z,101658.10
2017-09-22T17:16:50.193Z,101662.01
2017-09-22T17:19:17.943Z,101662.38
2017-09-22T17:21:45.558Z,101670.43
2017-09-22T17:24:13.600Z,101660.77
2017-09-22T17:26:41.419Z,101668.84
2017-09-22T17:29:09.033Z,101666.36
2017-09-22T17:31:36.632Z,101672.06
2017-09-22T17:34:04.234Z,101669.05
2017-09-22T17:36:32.114Z,101672.86
2017-09-22T17:38:59.692Z,101668.91
2017-09-22T17:41:27.284Z,101675.83
2017-09-22T17:43:54.888Z,101677.34
2017-09-22T17:46:22.510Z,101677.77
2017-09-22T17:48:50.124Z,101678.78
2017-09-22T17:51:17.701Z,101691.09
2017-09-22T17:53:45.273Z,101691.09
2017-09-22T17:56:12.886Z,101692.34
2017-09-22T17:58:40.479Z,101696.97
2017-09-22T18:01:08.447Z,101697.44
2017-09-22T18:03:36.047Z,101703.04
2017-09-22T18:06:03.630Z,101706.09
2017-09-22T18:08:31.244Z,101698.20
2017-09-22T18:10:58.833Z,101703.69
2017-09-22T18:13:26.456Z,101706.03
2017-09-22T18:15:54.312Z,101706.82
2017-09-22T18:20:49.110Z,101712.28
2017-09-22T18:23:16.696Z,101713.91
2017-09-22T18:25:44.664Z,101717.50
2017-09-22T18:28:12.240Z,101715.62
2017-09-22T18:30:39.828Z,101724.11
2017-09-22T18:33:07.444Z,101714.58
2017-09-22T18:35:35.030Z,101714.85
2017-09-22T18:38:02.611Z,101713.88
2017-09-22T18:40:30.335Z,101714.45
2017-09-22T18:42:57.916Z,101722.80
2017-09-22T18:45:25.500Z,101720.34
2017-09-22T18:47:53.127Z,101723.34
2017-09-22T18:50:20.716Z,101722.30
2017-09-22T18:52:48.297Z,101721.78
2017-09-22T18:55:15.915Z,101721.70
2017-09-22T18:57:43.772Z,101721.78
2017-09-22T19:00:11.347Z,101725.95
2017-09-22T19:02:38.962Z,101729.66
2017-09-22T19:05:06.572Z,101729.45
2017-09-22T19:07:34.196Z,101725.83
2017-09-22T19:10:01.784Z,101729.16
2017-09-22T19:12:29.374Z,101725.16
2017-09-22T19:14:57.004Z,101727.60
2017-09-22T19:17:24.603Z,101726.44
2017-09-22T19:19:52.227Z,101725.18
2017-09-22T19:22:19.860Z,101726.02
2017-09-22T19:24:47.458Z,101720.61
2017-09-22T19:27:15.066Z,101723.45
2017-09-22T19:29:42.688Z,101723.48
2017-09-22T19:32:10.317Z,101727.36
2017-09-22T19:34:38.215Z,101726.95
2017-09-22T19:37:05.792Z,101725.16
2017-09-22T19:39:33.396Z,101732.06
2017-09-22T19:42:01.258Z,101728.80
2017-09-22T19:44:28.953Z,101731.03
2017-09-22T19:46:56.543Z,101735.25
2017-09-22T19:49:24.167Z,101734.23
2017-09-22T19:51:51.769Z,101736.50
2017-09-22T19:54:19.610Z,101730.98
2017-09-22T19:56:47.235Z,101731.48
2017-09-22T19:59:14.819Z,101733.97
2017-09-22T20:01:42.404Z,101732.28
2017-09-22T20:04:10.261Z,101729.86
2017-09-22T20:06:37.844Z,101730.79
2017-09-22T20:09:05.479Z,101726.66
2017-09-22T20:11:33.347Z,101734.05
2017-09-22T20:14:00.936Z,101734.79
2017-09-22T20:16:28.560Z,101732.37
2017-09-22T20:18:56.138Z,101746.25
2017-09-22T20:21:23.786Z,101749.56
2017-09-22T20:23:51.667Z,101749.59
2017-09-22T20:26:19.298Z,101754.72
2017-09-22T20:28:46.934Z,101764.25
2017-09-22T20:31:14.535Z,101764.45
2017-09-22T20:33:42.326Z,101768.87
2017-09-22T20:36:09.910Z,101767.73
2017-09-22T20:38:37.489Z,101774.45
2017-09-22T20:41:05.209Z,101773.23
2017-09-22T20:43:32.899Z,101775.26
2017-09-22T20:46:00.525Z,101779.47
2017-09-22T20:48:28.394Z,101779.31
2017-09-22T20:50:55.967Z,101783.81
2017-09-22T20:53:23.585Z,101786.05
2017-09-22T20:55:51.168Z,101783.95
2017-09-22T20:58:18.800Z,101788.66
2017-09-22T21:00:46.385Z,101788.25
2017-09-22T21:03:14.082Z,101792.91
2017-09-22T21:05:41.692Z,101795.47
2017-09-22T21:08:09.398Z,101795.09
2017-09-22T21:10:37.391Z,101795.19
2017-09-22T21:13:05.115Z,101792.76
2017-09-22T21:15:32.709Z,101803.63
2017-09-22T21:18:00.328Z,101798.59
2017-09-22T21:20:27.916Z,101796.76
2017-09-22T21:22:55.595Z,101795.20
2017-09-22T21:25:23.189Z,101799.06
2017-09-22T21:27:50.778Z,101802.34
2017-09-22T21:30:18.396Z,101805.11
2017-09-22T21:32:45.986Z,101806.33
2017-09-22T21:35:13.615Z,101807.47
2017-09-22T21:37:41.199Z,101809.19
2017-09-22T21:40:08.783Z,101812.55
2017-09-22T21:42:36.405Z,101808.98
2017-09-22T21:45:03.991Z,101799.41
2017-09-22T21:47:31.608Z,101803.61
2017-09-22T21:49:59.201Z,101799.75
2017-09-22T21:52:26.827Z,101797.58
2017-09-22T21:54:54.443Z,101808.58
2017-09-22T21:57:22.248Z,101806.56
2017-09-22T21:59:49.951Z,101808.74
2017-09-22T22:02:17.531Z,101810.59
2017-09-22T22:04:50.633Z,101806.39
2017-09-22T22:07:24.060Z,101800.61
2017-09-22T22:09:51.688Z,101794.23
2017-09-22T22:12:19.279Z,101788.02
2017-09-22T22:14:46.857Z,101786.97
2017-09-22T22:17:14.634Z,101793.60
2017-09-22T22:19:42.215Z,101795.95
2017-09-22T22:22:09.899Z,101794.11
2017-09-22T22:24:37.488Z,101792.21
2017-09-22T22:27:05.076Z,101797.08
2017-09-22T22:29:32.683Z,101800.39
2017-09-22T22:32:00.268Z,101803.41
2017-09-22T22:34:27.913Z,101797.20
2017-09-22T22:37:04.344Z,101801.31
2017-09-22T22:39:32.057Z,101801.66
2017-09-22T22:41:59.668Z,101800.39
2017-09-22T22:44:27.281Z,101803.36
2017-09-22T22:46:54.886Z,101806.30
2017-09-22T22:49:22.462Z,101811.78
2017-09-22T22:51:50.088Z,101811.36
2017-09-22T22:54:17.665Z,101812.38
2017-09-22T22:56:45.257Z,101808.84
2017-09-22T22:59:12.880Z,101809.13
2017-09-22T23:01:40.460Z,101814.91
2017-09-22T23:04:08.098Z,101817.18
2017-09-22T23:06:36.353Z,101819.78
2017-09-22T23:09:04.044Z,101821.62
2017-09-22T23:11:31.679Z,101825.98
2017-09-22T23:13:59.264Z,101827.91
2017-09-22T23:16:26.884Z,101832.69
2017-09-22T23:18:54.791Z,101834.56
2017-09-22T23:21:22.375Z,101829.14
2017-09-22T23:23:49.984Z,101829.64
2017-09-22T23:26:17.566Z,101832.83
2017-09-22T23:28:45.448Z,101835.17
2017-09-22T23:31:13.032Z,101840.54
2017-09-22T23:33:40.872Z,101838.02
2017-09-22T23:36:08.478Z,101835.76
2017-09-22T23:38:36.064Z,101841.88
2017-09-22T23:41:03.684Z,101846.98
2017-09-22T23:43:31.280Z,101843.91
2017-09-22T23:45:58.944Z,101844.91
2017-09-22T23:48:26.649Z,101861.45
2017-09-22T23:50:54.512Z,101860.09
2017-09-22T23:53:22.139Z,101849.80
2017-09-22T23:55:49.709Z,101844.62
2017-09-22T23:58:17.300Z,101839.67
